Terminal Aerodrome Forecast
Issued by NWS

Home | Current Version | Previous Version | Graphics & Text | Print | Product List | Glossary On
Versions: 1 2 3 4 5 6 7 8 9 10 11 12 13 14 15 16 17 18
000
FTUS43 KGRB 281728
TAFCWA
TAF
KCWA 281728Z 2818/2918 20010G16KT P6SM SCT060
     FM290100 15005KT P6SM SCT250
     FM290600 15005KT P6SM BKN150
     FM291000 16007KT 6SM -RA BR BKN030 OVC050
     FM291200 19008KT 3SM -RA BR BKN012 OVC020=

USA.gov is the U.S. government's official web portal to all federal, state and local government web resources and services.